Time;durP1;ratioP1;P1;durP2;ratioP2;P2;SDS_P1;SDS_P2;PMS_P1;PMS_P2;Temp;Humidity;BMP_temperature;BMP_pressure;BME280_temperature;BME280_humidity;BME280_pressure;Samples;Min_cycle;Max_cycle;Signal;HPM_P1;HPM_P2
2023/09/11 00:01:52;;;;;;;30.60;27.67;;;;;;;21.00;99.74;101325.00;6217009;23;20434;-69
2023/09/11 00:04:18;;;;;;;32.10;28.92;;;;;;;21.03;99.78;101320.41;6209868;23;20012;-69
2023/09/11 00:06:44;;;;;;;30.85;27.85;;;;;;;21.01;99.59;101316.94;6242342;23;20012;-69
2023/09/11 00:09:10;;;;;;;30.98;28.10;;;;;;;20.97;99.96;101326.00;6208455;23;20020;-69
2023/09/11 00:11:35;;;;;;;32.90;29.45;;;;;;;20.91;99.81;101319.16;6216771;23;20053;-69
2023/09/11 00:14:00;;;;;;;31.92;28.88;;;;;;;20.89;100.00;101313.06;6206707;23;20095;-69
2023/09/11 00:16:26;;;;;;;32.08;29.13;;;;;;;20.89;100.00;101318.38;6217115;23;20011;-69
2023/09/11 00:18:56;;;;;;;31.83;28.92;;;;;;;20.80;99.93;101309.97;6216848;23;20016;-68
2023/09/11 00:21:24;;;;;;;32.03;28.90;;;;;;;20.67;100.00;101313.19;6211502;23;20157;-69
2023/09/11 00:23:50;;;;;;;31.25;28.30;;;;;;;20.58;100.00;101303.78;6218025;23;20028;-69
2023/09/11 00:26:16;;;;;;;32.50;29.20;;;;;;;20.40;100.00;101305.53;6208333;23;20321;-69
2023/09/11 00:28:41;;;;;;;32.40;29.45;;;;;;;20.28;100.00;101302.56;6242671;23;20012;-69
2023/09/11 00:31:06;;;;;;;32.25;29.08;;;;;;;20.30;100.00;101301.56;6206119;23;20008;-69
2023/09/11 00:33:32;;;;;;;32.95;29.73;;;;;;;20.25;100.00;101299.09;6217359;23;20012;-69
2023/09/11 00:35:57;;;;;;;34.00;30.33;;;;;;;20.30;100.00;101301.56;6205180;23;20015;-69
2023/09/11 00:38:23;;;;;;;31.23;28.15;;;;;;;20.22;100.00;101306.34;6192647;23;20012;-69
2023/09/11 00:40:48;;;;;;;32.78;29.55;;;;;;;20.20;100.00;101300.22;6241383;23;20057;-69
2023/09/11 00:43:14;;;;;;;32.50;29.55;;;;;;;20.27;100.00;101298.16;6208947;23;20346;-69
2023/09/11 00:45:39;;;;;;;32.70;29.80;;;;;;;20.26;100.00;101297.31;6191739;23;20360;-69
2023/09/11 00:48:05;;;;;;;32.03;28.75;;;;;;;20.25;100.00;101300.91;6206935;23;20012;-69
2023/09/11 00:50:31;;;;;;;31.10;28.40;;;;;;;20.23;100.00;101297.44;6191975;23;20127;-69
2023/09/11 00:52:57;;;;;;;32.08;28.85;;;;;;;20.36;100.00;101295.09;6230878;23;20000;-69
2023/09/11 00:55:23;;;;;;;31.42;28.45;;;;;;;20.41;100.00;101295.72;6241481;23;20007;-69
2023/09/11 00:57:50;;;;;;;31.65;28.35;;;;;;;20.41;100.00;101301.94;6217042;23;20015;-68
2023/09/11 01:00:16;;;;;;;32.58;29.20;;;;;;;20.45;100.00;101296.47;6234235;23;20042;-68
2023/09/11 01:02:41;;;;;;;32.22;29.23;;;;;;;20.44;100.00;101300.91;6241743;23;20000;-69
2023/09/11 01:05:09;;;;;;;33.05;29.75;;;;;;;20.43;100.00;101297.41;6207498;23;20008;-69
2023/09/11 01:07:35;;;;;;;32.08;29.40;;;;;;;20.39;100.00;101295.81;6241686;23;20402;-69
2023/09/11 01:10:05;;;;;;;32.00;29.02;;;;;;;20.42;100.00;101290.34;6231239;23;20004;-69
2023/09/11 01:12:32;;;;;;;32.28;29.25;;;;;;;20.36;100.00;101287.13;6193498;23;20441;-69
2023/09/11 01:14:58;;;;;;;31.55;28.33;;;;;;;20.34;100.00;101294.28;6230867;23;20004;-68
2023/09/11 01:17:59;;;;;;;30.27;27.33;;;;;;;20.35;100.00;101288.88;6216986;23;20018;-69
2023/09/11 01:20:39;;;;;;;31.17;28.08;;;;;;;20.34;100.00;101295.16;6242316;23;20090;-69
2023/09/11 01:23:33;;;;;;;31.13;28.23;;;;;;;20.28;100.00;101295.44;6243264;23;20008;-68
2023/09/11 01:26:24;;;;;;;29.25;26.15;;;;;;;20.25;100.00;101296.41;6241365;23;20016;-69
2023/09/11 01:29:08;;;;;;;29.95;27.15;;;;;;;20.27;100.00;101293.72;6242760;23;20445;-69
2023/09/11 01:31:35;;;;;;;28.50;25.95;;;;;;;20.08;100.00;101294.53;6238959;23;20008;-69
2023/09/11 01:34:02;;;;;;;29.35;26.63;;;;;;;20.00;100.00;101285.19;6233541;23;20011;-68
2023/09/11 01:36:28;;;;;;;29.08;26.13;;;;;;;19.94;100.00;101288.97;6244201;23;20083;-68
2023/09/11 01:38:55;;;;;;;30.33;27.27;;;;;;;20.05;100.00;101292.00;6193695;23;20083;-69
2023/09/11 01:41:33;;;;;;;32.15;25.90;;;;;;;19.99;100.00;101291.44;6211061;23;20087;-68
2023/09/11 01:44:04;;;;;;;30.58;27.30;;;;;;;19.96;100.00;101286.25;6243982;23;20000;-69
2023/09/11 01:46:29;;;;;;;28.60;26.10;;;;;;;19.90;100.00;101287.38;6243130;23;20054;-69
2023/09/11 01:48:57;;;;;;;27.83;25.23;;;;;;;19.81;100.00;101285.09;6218744;23;20016;-68
2023/09/11 01:51:24;;;;;;;28.92;26.15;;;;;;;19.81;100.00;101274.47;6244292;23;20004;-69
2023/09/11 01:53:50;;;;;;;28.85;26.25;;;;;;;19.74;100.00;101280.03;6244050;23;20016;-68
2023/09/11 01:56:15;;;;;;;29.67;26.88;;;;;;;19.63;100.00;101279.63;6233889;23;20011;-69
2023/09/11 01:58:43;;;;;;;27.85;25.33;;;;;;;19.37;100.00;101280.72;6217809;23;20283;-69
2023/09/11 02:01:09;;;;;;;28.33;25.70;;;;;;;19.16;100.00;101270.03;6233987;23;20406;-69
2023/09/11 02:03:34;;;;;;;24.67;22.45;;;;;;;19.14;100.00;101274.56;6218790;23;20126;-68
2023/09/11 02:06:00;;;;;;;24.38;22.33;;;;;;;18.96;100.00;101284.13;6232133;23;20015;-69
2023/09/11 02:08:26;;;;;;;27.23;24.67;;;;;;;18.97;100.00;101277.03;6218170;23;20472;-69
2023/09/11 02:10:53;;;;;;;26.17;23.88;;;;;;;18.80;100.00;101278.53;6217849;23;20012;-69
2023/09/11 02:13:19;;;;;;;26.67;24.23;;;;;;;18.73;100.00;101278.84;6212178;23;20004;-69
2023/09/11 02:15:45;;;;;;;28.10;25.63;;;;;;;18.57;100.00;101273.25;6192564;23;20019;-69
2023/09/11 02:18:10;;;;;;;32.50;29.60;;;;;;;18.91;100.00;101275.50;6209346;23;20004;-69
2023/09/11 02:20:35;;;;;;;30.13;27.58;;;;;;;18.83;100.00;101261.63;6217684;23;20095;-69
2023/09/11 02:23:01;;;;;;;32.10;29.35;;;;;;;18.90;100.00;101259.63;6207256;23;20341;-69
2023/09/11 02:25:26;;;;;;;33.33;30.23;;;;;;;18.86;100.00;101264.16;6242992;23;20547;-69
2023/09/11 02:27:52;;;;;;;28.88;26.00;;;;;;;18.62;100.00;101266.84;6193123;23;20472;-69
2023/09/11 02:30:18;;;;;;;27.38;24.60;;;;;;;18.59;100.00;101266.97;6210747;23;20012;-68
2023/09/11 02:32:44;;;;;;;24.98;22.70;;;;;;;18.42;100.00;101258.75;6218210;23;20094;-69
2023/09/11 02:35:09;;;;;;;26.20;23.92;;;;;;;18.38;100.00;101260.69;6208514;23;20008;-68
2023/09/11 02:37:35;;;;;;;29.05;26.55;;;;;;;18.21;100.00;101257.81;6218164;23;20019;-69
2023/09/11 02:40:03;;;;;;;28.58;25.83;;;;;;;18.20;100.00;101259.56;6206997;23;20342;-68
2023/09/11 02:42:28;;;;;;;31.20;28.45;;;;;;;18.29;100.00;101258.41;6217743;23;20008;-69
2023/09/11 02:44:54;;;;;;;32.30;29.40;;;;;;;18.08;100.00;101254.75;6217649;23;20434;-68
2023/09/11 02:47:19;;;;;;;30.35;27.73;;;;;;;18.21;100.00;101248.06;6210066;23;20000;-69
2023/09/11 02:49:45;;;;;;;26.40;24.17;;;;;;;18.07;100.00;101248.56;6192976;23;20008;-69
2023/09/11 02:52:10;;;;;;;29.90;27.38;;;;;;;18.08;100.00;101250.28;6208957;23;20012;-69
2023/09/11 02:54:35;;;;;;;30.15;27.67;;;;;;;17.98;100.00;101255.06;6193304;23;20051;-68
2023/09/11 02:57:01;;;;;;;27.77;24.90;;;;;;;18.05;100.00;101249.56;6204834;23;20062;-68
2023/09/11 02:59:26;;;;;;;27.55;25.20;;;;;;;17.99;100.00;101254.16;6218366;23;20011;-69
2023/09/11 03:01:53;;;;;;;27.77;25.40;;;;;;;17.95;100.00;101264.94;6217390;23;20012;-68
2023/09/11 03:04:18;;;;;;;29.65;26.95;;;;;;;17.91;100.00;101245.59;6210757;23;20016;-68
2023/09/11 03:06:45;;;;;;;28.20;25.58;;;;;;;17.84;100.00;101246.69;6217856;23;20430;-69
2023/09/11 03:09:11;;;;;;;25.17;22.77;;;;;;;17.72;100.00;101252.47;6233686;23;20346;-69
2023/09/11 03:11:37;;;;;;;26.88;24.52;;;;;;;17.74;100.00;101240.00;6217463;23;20112;-69
2023/09/11 03:14:02;;;;;;;32.35;29.50;;;;;;;17.68;100.00;101249.03;6207095;23;20292;-69
2023/09/11 03:16:28;;;;;;;34.53;31.35;;;;;;;17.66;100.00;101243.78;6192402;23;20438;-69
2023/09/11 03:18:54;;;;;;;36.72;33.40;;;;;;;17.77;100.00;101239.88;6243146;23;20012;-69
2023/09/11 03:21:19;;;;;;;32.08;29.17;;;;;;;17.71;100.00;101233.03;6210419;23;20011;-69
2023/09/11 03:23:45;;;;;;;29.48;26.90;;;;;;;17.56;100.00;101230.94;6218084;23;20016;-70
2023/09/11 03:26:15;;;;;;;28.02;25.42;;;;;;;17.58;100.00;101234.38;6182659;23;20311;-69
2023/09/11 03:28:46;;;;;;;31.35;28.73;;;;;;;17.54;100.00;101232.75;6243128;23;20011;-69
2023/09/11 03:31:11;;;;;;;27.45;24.65;;;;;;;17.38;100.00;101229.75;6233395;23;20019;-69
2023/09/11 03:33:37;;;;;;;35.17;32.08;;;;;;;17.55;100.00;101229.19;6243204;23;20035;-69
2023/09/11 03:36:02;;;;;;;38.72;35.17;;;;;;;17.65;100.00;101218.19;6206456;23;20019;-69
2023/09/11 03:38:27;;;;;;;38.22;34.95;;;;;;;17.67;100.00;101219.03;6192884;23;20026;-69
2023/09/11 03:40:53;;;;;;;31.63;28.92;;;;;;;17.58;100.00;101223.78;6216371;23;20346;-69
2023/09/11 03:43:18;;;;;;;27.98;25.38;;;;;;;17.49;100.00;101219.66;6210447;23;20381;-69
2023/09/11 03:45:44;;;;;;;27.98;25.48;;;;;;;17.41;100.00;101217.28;6241666;23;20361;-70
2023/09/11 03:48:09;;;;;;;28.23;25.67;;;;;;;17.40;100.00;101220.00;6208386;23;20043;-69
2023/09/11 03:50:35;;;;;;;30.48;27.63;;;;;;;17.38;100.00;101212.06;6217636;23;20012;-69
2023/09/11 03:53:01;;;;;;;38.80;34.83;;;;;;;17.64;100.00;101208.53;6205915;23;20088;-69
2023/09/11 03:55:27;;;;;;;37.58;33.85;;;;;;;17.84;100.00;101207.81;6216755;23;20015;-69
2023/09/11 03:57:52;;;;;;;35.65;32.47;;;;;;;18.00;100.00;101202.84;6191825;23;20082;-69
2023/09/11 04:00:18;;;;;;;27.17;24.52;;;;;;;17.51;100.00;101193.97;6209714;23;20028;-69
2023/09/11 04:02:43;;;;;;;34.45;31.15;;;;;;;17.75;100.00;101194.88;6191625;23;20016;-69
2023/09/11 04:05:09;;;;;;;34.97;31.98;;;;;;;17.92;100.00;101188.16;6208179;23;20011;-69
2023/09/11 04:07:34;;;;;;;33.25;30.15;;;;;;;17.98;100.00;101191.41;6217240;23;20090;-69
2023/09/11 04:10:00;;;;;;;35.45;31.95;;;;;;;18.05;100.00;101185.91;6205522;23;20065;-69
2023/09/11 04:12:25;;;;;;;33.25;30.02;;;;;;;18.10;100.00;101184.81;6191578;23;20288;-69
2023/09/11 04:14:51;;;;;;;31.88;28.80;;;;;;;18.28;100.00;101187.69;6192115;23;20004;-70
2023/09/11 04:17:16;;;;;;;31.65;28.52;;;;;;;18.27;100.00;101188.59;6208370;23;20008;-69
2023/09/11 04:19:42;;;;;;;29.73;26.83;;;;;;;18.41;100.00;101185.41;6217306;23;20016;-69
2023/09/11 04:22:08;;;;;;;29.05;26.48;;;;;;;18.36;100.00;101185.59;6207383;23;20342;-69
2023/09/11 04:24:34;;;;;;;32.13;26.42;;;;;;;18.32;100.00;101192.81;6242577;23;20083;-69
2023/09/11 04:26:59;;;;;;;27.33;24.83;;;;;;;18.44;100.00;101180.00;6215203;23;20514;-69
2023/09/11 04:29:25;;;;;;;27.60;24.92;;;;;;;18.35;100.00;101176.75;6217528;23;20379;-69
2023/09/11 04:31:51;;;;;;;26.95;24.30;;;;;;;18.46;100.00;101175.47;6191738;23;20074;-69
2023/09/11 04:34:17;;;;;;;27.08;23.48;;;;;;;18.42;100.00;101173.84;6234758;23;20004;-69
2023/09/11 04:36:42;;;;;;;26.65;23.85;;;;;;;18.37;100.00;101175.84;6191677;23;20024;-70
2023/09/11 04:39:08;;;;;;;23.73;21.42;;;;;;;18.43;100.00;101171.19;6206397;23;20016;-69
2023/09/11 04:41:33;;;;;;;24.35;21.77;;;;;;;18.48;100.00;101176.28;6191348;23;20008;-69
2023/09/11 04:43:58;;;;;;;23.15;20.80;;;;;;;18.53;100.00;101177.84;6205527;23;20004;-69
2023/09/11 04:46:24;;;;;;;22.65;20.35;;;;;;;18.60;100.00;101173.13;6216082;23;20023;-69
2023/09/11 04:48:49;;;;;;;22.10;19.90;;;;;;;18.60;100.00;101173.13;6217076;23;20016;-70
2023/09/11 04:51:15;;;;;;;22.08;19.92;;;;;;;18.65;100.00;101179.13;6208869;23;20030;-69
2023/09/11 04:53:43;;;;;;;23.05;20.33;;;;;;;18.64;100.00;101180.06;6216965;23;20012;-69
2023/09/11 04:56:09;;;;;;;21.35;19.30;;;;;;;18.67;100.00;101182.56;6205640;23;20012;-69
2023/09/11 04:58:34;;;;;;;22.60;18.92;;;;;;;18.68;100.00;101178.16;6192926;23;20341;-69
2023/09/11 05:01:00;;;;;;;19.45;17.55;;;;;;;18.75;100.00;101181.41;6205134;23;20035;-69
2023/09/11 05:03:25;;;;;;;21.35;19.33;;;;;;;18.68;100.00;101181.66;6216423;23;20018;-69
2023/09/11 05:05:51;;;;;;;21.52;19.23;;;;;;;18.61;100.00;101187.28;6217620;23;20012;-69
2023/09/11 05:08:16;;;;;;;20.55;18.48;;;;;;;18.37;100.00;101186.47;6211623;23;20101;-69
2023/09/11 05:10:43;;;;;;;21.40;19.13;;;;;;;18.31;100.00;101192.88;6193124;23;20465;-69
2023/09/11 05:13:11;;;;;;;20.48;18.45;;;;;;;18.27;100.00;101191.25;6234368;23;20058;-68
2023/09/11 05:15:36;;;;;;;21.13;19.13;;;;;;;18.09;100.00;101188.38;6244246;23;20032;-69
2023/09/11 05:18:02;;;;;;;21.95;18.00;;;;;;;18.39;100.00;101197.88;6207505;23;20016;-68
2023/09/11 05:20:28;;;;;;;19.52;17.02;;;;;;;18.49;100.00;101193.94;6244343;23;20082;-69
2023/09/11 05:22:54;;;;;;;20.40;17.92;;;;;;;18.55;100.00;101190.16;6219182;23;20391;-68
2023/09/11 05:25:20;;;;;;;18.35;16.40;;;;;;;18.61;100.00;101182.84;6217874;23;20020;-68
2023/09/11 05:27:46;;;;;;;24.08;17.20;;;;;;;18.72;100.00;101190.38;6219153;23;20004;-69
2023/09/11 05:30:12;;;;;;;18.58;15.75;;;;;;;18.78;100.00;101192.78;6209879;23;20018;-68
2023/09/11 05:32:38;;;;;;;18.77;15.80;;;;;;;18.76;100.00;101185.78;6214464;23;20012;-69
2023/09/11 05:35:04;;;;;;;19.05;15.05;;;;;;;18.81;100.00;101191.78;6207763;23;20008;-68
2023/09/11 05:37:30;;;;;;;17.10;15.35;;;;;;;18.94;100.00;101197.50;6194139;23;20022;-68
2023/09/11 05:39:55;;;;;;;19.15;15.32;;;;;;;19.01;100.00;101196.31;6229341;23;20035;-69
2023/09/11 05:42:23;;;;;;;18.17;15.38;;;;;;;19.05;100.00;101192.63;6217147;23;20035;-69
2023/09/11 05:44:49;;;;;;;18.80;15.40;;;;;;;19.15;99.22;101190.41;6244500;23;20019;-69
2023/09/11 05:47:15;;;;;;;16.88;13.88;;;;;;;19.26;98.39;101201.44;6209333;23;20012;-69
2023/09/11 05:49:40;;;;;;;17.30;14.25;;;;;;;19.33;98.34;101200.25;6219139;23;20008;-69
2023/09/11 05:52:06;;;;;;;17.65;15.43;;;;;;;19.39;98.17;101201.78;6182532;23;20039;-69
2023/09/11 05:54:33;;;;;;;18.95;13.93;;;;;;;19.48;97.27;101205.84;6244290;23;20004;-68
2023/09/11 05:57:01;;;;;;;18.27;14.30;;;;;;;19.61;97.09;101209.72;6206455;23;20090;-69
2023/09/11 05:59:26;;;;;;;15.95;13.90;;;;;;;19.71;96.03;101211.03;6218450;23;20016;-69
2023/09/11 06:01:52;;;;;;;17.48;13.32;;;;;;;19.92;95.28;101213.69;6217710;23;20492;-69
2023/09/11 06:04:17;;;;;;;17.90;13.55;;;;;;;20.01;93.48;101215.06;6236241;22;20008;-69
2023/09/11 06:06:43;;;;;;;19.83;13.07;;;;;;;20.29;93.30;101211.16;6243536;23;20012;-68
2023/09/11 06:09:09;;;;;;;16.85;12.82;;;;;;;20.76;89.88;101219.56;6208873;23;20000;-68
2023/09/11 06:11:35;;;;;;;15.60;12.00;;;;;;;21.58;86.61;101222.66;6217250;23;20095;-69
2023/09/11 06:14:01;;;;;;;16.23;12.40;;;;;;;22.08;83.39;101227.09;6182375;23;20019;-69
2023/09/11 06:16:27;;;;;;;14.23;11.82;;;;;;;22.57;81.16;101225.34;6242943;23;20046;-69
2023/09/11 06:18:52;;;;;;;16.80;10.50;;;;;;;23.56;77.50;101217.00;6218531;23;20003;-69
2023/09/11 06:21:18;;;;;;;18.60;11.07;;;;;;;23.61;74.37;101220.25;6235587;23;20430;-69
2023/09/11 06:23:44;;;;;;;14.35;10.45;;;;;;;23.87;74.39;101232.91;6193566;23;20086;-69
2023/09/11 06:26:10;;;;;;;12.50;11.02;;;;;;;23.83;73.47;101231.38;6208016;23;20020;-69
2023/09/11 06:28:35;;;;;;;11.85;10.02;;;;;;;23.82;72.39;101228.75;6192976;23;20484;-69
2023/09/11 06:31:01;;;;;;;16.33;10.52;;;;;;;24.09;72.41;101228.06;6244106;23;20055;-69
2023/09/11 06:33:29;;;;;;;14.07;10.40;;;;;;;23.90;72.81;101239.06;6212915;23;20099;-69
2023/09/11 06:35:55;;;;;;;12.35;10.02;;;;;;;24.24;70.69;101231.56;6218806;23;20014;-69
2023/09/11 06:38:21;;;;;;;15.73;10.63;;;;;;;24.09;70.42;101236.06;6243944;23;20330;-69
2023/09/11 06:40:47;;;;;;;13.55;9.82;;;;;;;24.74;69.02;101232.88;6216901;23;20014;-69
2023/09/11 06:43:13;;;;;;;15.18;9.80;;;;;;;24.80;68.21;101231.59;6234393;23;20050;-69
2023/09/11 06:45:39;;;;;;;14.73;9.50;;;;;;;24.96;67.54;101239.50;6243476;23;20346;-69
2023/09/11 06:48:05;;;;;;;17.67;10.15;;;;;;;25.65;66.86;101242.03;6182728;23;20012;-69
2023/09/11 06:50:31;;;;;;;11.50;8.80;;;;;;;25.85;64.17;101238.81;6217902;23;20004;-69
2023/09/11 06:52:56;;;;;;;14.85;9.43;;;;;;;26.48;61.61;101241.56;6181455;23;20007;-70
2023/09/11 06:55:22;;;;;;;13.27;9.95;;;;;;;27.24;60.84;101231.47;6217229;23;20012;-69
2023/09/11 06:58:01;;;;;;;13.82;9.23;;;;;;;27.63;60.43;101223.16;6241766;23;20131;-69
2023/09/11 07:00:28;;;;;;;15.27;9.43;;;;;;;27.25;57.71;101219.72;6236658;23;20012;-69
2023/09/11 07:02:54;;;;;;;16.45;9.40;;;;;;;27.22;59.31;101217.25;6242695;23;20004;-69
2023/09/11 07:05:20;;;;;;;15.68;9.15;;;;;;;29.01;56.17;101231.84;6186146;23;20011;-70
2023/09/11 07:07:46;;;;;;;10.93;8.70;;;;;;;30.05;54.96;101237.41;6218672;23;20008;-70
2023/09/11 07:10:17;;;;;;;13.60;8.57;;;;;;;30.57;53.07;101240.00;6234179;23;20015;-70
2023/09/11 07:12:44;;;;;;;12.40;8.40;;;;;;;30.51;50.82;101238.72;6242729;23;20003;-70
2023/09/11 07:15:10;;;;;;;13.57;7.75;;;;;;;31.43;51.00;101236.63;6233851;23;20008;-70
2023/09/11 07:17:35;;;;;;;10.63;8.35;;;;;;;31.10;50.82;101236.09;6242732;23;20008;-70
2023/09/11 07:20:05;;;;;;;10.70;8.23;;;;;;;29.30;52.37;101226.72;6231622;23;20494;-70
2023/09/11 07:22:31;;;;;;;;;;;;;;;30.34;56.59;101240.22;6243700;23;20007;-70
2023/09/11 07:24:57;;;;;;;11.75;8.90;;;;;;;28.41;56.18;101228.69;6231356;23;19909;-70
2023/09/11 07:27:23;;;;;;;13.05;8.95;;;;;;;28.28;57.98;101221.59;6216716;23;20115;-71
2023/09/11 07:29:51;;;;;;;13.40;9.07;;;;;;;27.17;58.99;101211.38;6217758;23;20048;-71
2023/09/11 07:32:16;;;;;;;15.43;9.13;;;;;;;27.62;60.73;101216.88;6184506;23;20008;-71
2023/09/11 07:34:42;;;;;;;14.02;9.32;;;;;;;26.91;60.59;101214.22;6218147;23;20012;-68
2023/09/11 07:37:10;;;;;;;13.35;9.25;;;;;;;27.51;62.13;101214.16;6207793;23;20091;-69
2023/09/11 07:39:35;;;;;;;11.35;9.25;;;;;;;27.49;62.37;101221.53;6218421;23;20035;-68
2023/09/11 07:42:01;;;;;;;11.45;8.48;;;;;;;27.23;61.68;101224.34;6205435;23;20406;-69
2023/09/11 07:44:26;;;;;;;14.50;9.35;;;;;;;27.88;61.22;101226.59;6217798;23;20020;-69
2023/09/11 07:46:52;;;;;;;17.92;9.00;;;;;;;27.95;60.40;101227.81;6217042;23;20011;-69
2023/09/11 07:49:17;;;;;;;12.68;9.63;;;;;;;27.95;60.17;101227.81;6235238;23;20000;-69
2023/09/11 07:51:43;;;;;;;15.05;9.85;;;;;;;27.25;59.55;101221.53;6216841;23;20095;-69
2023/09/11 07:54:08;;;;;;;14.48;9.23;;;;;;;27.73;60.89;101231.34;6183166;23;20004;-69
2023/09/11 07:56:34;;;;;;;14.93;9.40;;;;;;;27.26;61.07;101232.19;6191842;23;20038;-69
2023/09/11 07:59:01;;;;;;;13.27;9.40;;;;;;;26.92;59.91;101226.69;6181435;23;20100;-69
2023/09/11 08:01:26;;;;;;;12.18;9.32;;;;;;;26.77;61.92;101233.19;6241236;23;20087;-68
2023/09/11 08:03:52;;;;;;;12.43;9.07;;;;;;;26.92;62.40;101234.75;6193018;23;20420;-68
2023/09/11 08:06:21;;;;;;;13.57;9.73;;;;;;;26.93;62.92;101235.59;6184565;23;20008;-68
2023/09/11 08:08:46;;;;;;;13.88;9.18;;;;;;;27.14;64.08;101242.06;6218531;23;20007;-68
2023/09/11 08:11:16;;;;;;;13.02;9.30;;;;;;;27.00;63.30;101244.06;6182566;23;20012;-68
2023/09/11 08:13:43;;;;;;;15.32;10.45;;;;;;;27.27;63.54;101249.19;6243369;23;20011;-68
2023/09/11 08:16:09;;;;;;;15.60;10.57;;;;;;;27.37;62.44;101255.63;6232366;23;20015;-68
2023/09/11 08:18:35;;;;;;;14.27;10.68;;;;;;;27.26;62.28;101260.94;6242863;23;20035;-68
2023/09/11 08:21:00;;;;;;;15.00;11.60;;;;;;;27.36;62.35;101253.91;6205723;23;20452;-68
2023/09/11 08:23:26;;;;;;;16.63;12.02;;;;;;;27.17;63.34;101261.59;6192003;23;20354;-68
2023/09/11 08:25:59;;;;;;;13.82;12.32;;;;;;;27.03;61.76;101257.28;6241841;23;20047;-67
2023/09/11 08:28:25;;;;;;;15.23;13.10;;;;;;;26.92;61.54;101258.94;6236498;23;20019;-68
2023/09/11 08:30:50;;;;;;;17.73;13.07;;;;;;;27.04;61.74;101248.22;6216527;23;20008;-68
2023/09/11 08:33:16;;;;;;;16.58;13.95;;;;;;;27.17;61.65;101246.34;6209530;23;20015;-68
2023/09/11 08:35:43;;;;;;;18.85;13.05;;;;;;;27.24;62.19;101252.09;6217324;23;20031;-68
2023/09/11 08:38:08;;;;;;;17.20;14.00;;;;;;;27.24;61.84;101250.28;6182828;23;20008;-68
2023/09/11 08:40:34;;;;;;;16.58;14.15;;;;;;;26.93;62.89;101257.97;6193181;23;20062;-68
2023/09/11 08:42:59;;;;;;;16.40;14.40;;;;;;;26.90;61.41;101258.19;6208338;23;20492;-67
2023/09/11 08:45:26;;;;;;;16.20;14.50;;;;;;;26.84;63.64;101258.66;6194081;23;20046;-68
2023/09/11 08:47:57;;;;;;;16.90;13.90;;;;;;;26.78;61.36;101259.13;6244170;23;20011;-67
2023/09/11 08:50:30;;;;;;;17.23;15.27;;;;;;;26.60;63.78;101253.22;6212543;23;20008;-68
2023/09/11 08:52:58;;;;;;;20.05;15.27;;;;;;;26.95;63.79;101256.03;6244654;23;20014;-68
2023/09/11 08:55:27;;;;;;;19.00;15.65;;;;;;;26.87;62.89;101255.75;6243768;23;20310;-67
2023/09/11 08:57:54;;;;;;;21.17;16.00;;;;;;;26.78;64.43;101253.75;6244446;23;20087;-68
2023/09/11 09:00:20;;;;;;;18.77;16.45;;;;;;;26.82;65.47;101255.22;6212158;23;20089;-69
2023/09/11 09:02:46;;;;;;;21.02;15.98;;;;;;;26.92;64.65;101256.25;6218695;23;20418;-68
2023/09/11 09:05:13;;;;;;;17.63;15.70;;;;;;;27.12;66.14;101256.59;6235290;23;20004;-68
2023/09/11 09:07:39;;;;;;;18.42;15.30;;;;;;;27.08;64.24;101265.84;6244205;23;20426;-68
2023/09/11 09:10:06;;;;;;;21.50;16.60;;;;;;;27.19;63.49;101262.38;6184392;23;20012;-68
2023/09/11 09:12:33;;;;;;;19.23;15.15;;;;;;;27.07;62.56;101258.78;6243665;23;20410;-68
2023/09/11 09:14:59;;;;;;;17.52;15.73;;;;;;;27.03;63.72;101252.75;6232370;23;20422;-67
2023/09/11 09:17:24;;;;;;;18.55;15.95;;;;;;;27.05;64.60;101245.44;6193252;23;20038;-67
2023/09/11 09:19:50;;;;;;;22.00;16.35;;;;;;;27.09;64.07;101248.75;6194379;23;20008;-67
2023/09/11 09:22:16;;;;;;;22.63;16.67;;;;;;;27.24;64.42;101242.22;6235849;23;20007;-68
2023/09/11 09:24:52;;;;;;;17.48;15.88;;;;;;;27.24;64.15;101246.72;6244792;23;20004;-67
2023/09/11 09:27:19;;;;;;;16.05;14.40;;;;;;;27.15;63.20;101248.28;6234857;23;20043;-67
2023/09/11 09:29:48;;;;;;;17.60;15.85;;;;;;;26.96;64.02;101263.09;6244154;23;20369;-67
2023/09/11 09:32:14;;;;;;;18.27;14.93;;;;;;;27.06;63.62;101254.38;6235103;23;20087;-67
2023/09/11 09:34:52;;;;;;;15.93;13.90;;;;;;;27.33;63.04;101255.94;6244383;23;20004;-68
2023/09/11 09:37:22;;;;;;;15.63;13.93;;;;;;;27.00;63.20;101258.38;6235918;23;20014;-68
2023/09/11 09:39:48;;;;;;;17.55;13.75;;;;;;;27.24;61.77;101244.03;6243943;23;20040;-67
2023/09/11 09:42:15;;;;;;;14.88;12.60;;;;;;;27.30;63.53;101260.56;6209808;23;20008;-67
2023/09/11 09:44:43;;;;;;;16.58;13.60;;;;;;;27.27;62.33;101255.44;6219178;23;20004;-67
2023/09/11 09:47:15;;;;;;;16.48;14.75;;;;;;;27.31;62.81;101253.34;6233972;23;20399;-67
2023/09/11 09:49:54;;;;;;;18.60;13.07;;;;;;;27.44;62.91;101256.00;6244318;23;20502;-67
2023/09/11 09:52:30;;;;;;;16.55;13.65;;;;;;;27.35;63.76;101252.16;6235823;23;20004;-67
2023/09/11 09:55:02;;;;;;;14.63;12.15;;;;;;;27.52;63.25;101253.56;6244413;23;20004;-67
2023/09/11 09:57:28;;;;;;;13.88;12.38;;;;;;;27.53;62.37;101249.91;6242350;23;20012;-67
2023/09/11 09:59:58;;;;;;;14.75;12.73;;;;;;;27.49;63.00;101251.13;6243948;23;20299;-67
2023/09/11 10:02:32;;;;;;;17.75;12.45;;;;;;;27.57;60.66;101253.22;6243335;23;20004;-67
2023/09/11 10:05:04;;;;;;;15.63;11.93;;;;;;;27.45;60.78;101249.63;6218087;23;20341;-67
2023/09/11 10:07:42;;;;;;;18.92;12.98;;;;;;;27.54;61.60;101246.25;6243196;23;20087;-67
2023/09/11 10:10:26;;;;;;;15.23;11.95;;;;;;;27.60;62.36;101237.69;6234388;23;20380;-67
2023/09/11 10:13:04;;;;;;;13.73;10.93;;;;;;;27.64;61.38;101254.44;6244000;23;20008;-67
2023/09/11 10:15:36;;;;;;;13.05;10.18;;;;;;;27.55;59.64;101253.34;6238177;23;20020;-67
2023/09/11 10:18:02;;;;;;;14.68;10.25;;;;;;;27.49;59.85;101253.81;6232020;23;20573;-67
2023/09/11 10:20:28;;;;;;;11.48;9.35;;;;;;;27.47;59.15;101253.94;6218103;23;20056;-67
2023/09/11 10:22:56;;;;;;;14.27;10.00;;;;;;;27.47;59.78;101250.41;6217019;23;20031;-67
2023/09/11 10:27:53;;;;;;;13.73;10.75;;;;;;;27.70;61.03;101245.03;6272982;22;20073;-67
2023/09/11 10:30:24;;;;;;;12.50;9.25;;;;;;;27.74;59.75;101241.13;6305915;22;20003;-67
2023/09/11 10:32:57;;;;;;;11.05;9.55;;;;;;;27.71;59.24;101244.06;6279084;22;20003;-67
2023/09/11 10:35:25;;;;;;;14.00;10.73;;;;;;;27.72;59.70;101240.41;6279054;22;20397;-67
2023/09/11 10:37:57;;;;;;;12.50;9.95;;;;;;;27.78;60.19;101239.91;6253966;22;20007;-67
2023/09/11 10:40:25;;;;;;;16.08;11.05;;;;;;;27.75;59.86;101237.47;6278232;22;20037;-67
2023/09/11 10:42:51;;;;;;;15.73;11.68;;;;;;;27.80;59.19;101233.44;6254517;22;20007;-67
2023/09/11 10:45:29;;;;;;;12.38;10.02;;;;;;;27.82;60.95;101241.41;6228422;22;20042;-67
2023/09/11 10:47:55;;;;;;;12.77;10.23;;;;;;;27.84;58.62;101234.03;6253320;22;20011;-66
2023/09/11 10:50:50;;;;;;;12.63;9.95;;;;;;;28.06;60.17;101232.38;6279172;22;20099;-67
2023/09/11 10:53:15;;;;;;;12.50;9.82;;;;;;;27.90;59.60;101233.59;6246631;22;20092;-67
2023/09/11 10:55:41;;;;;;;16.92;11.50;;;;;;;27.92;59.23;101231.59;6251792;22;20011;-67
2023/09/11 10:58:07;;;;;;;14.85;12.40;;;;;;;27.92;59.56;101239.69;6226087;22;20015;-67
2023/09/11 11:00:37;;;;;;;15.23;11.88;;;;;;;27.94;61.08;101237.75;6227181;22;20429;-67
2023/09/11 11:03:04;;;;;;;16.40;11.43;;;;;;;27.99;61.57;101238.25;6252255;22;20359;-69
2023/09/11 11:05:32;;;;;;;14.77;11.95;;;;;;;27.90;63.38;101227.31;6278027;22;20088;-67
2023/09/11 11:07:57;;;;;;;16.73;12.68;;;;;;;28.18;60.43;101224.16;6278020;22;20003;-68
2023/09/11 11:10:23;;;;;;;15.80;12.48;;;;;;;28.37;60.40;101229.91;6251835;22;20060;-68